Kirill Martynovich

Ojeador - BATE
3 Dic 2028
Domingo
Continuar

Personalidad

Adaptabilidad (13) Ambición (8) Controversia (14) Lealtad (13) Presión (5) Profesionalismo (3) Deportividad (6) Temperamento (2)

Perfil

Estilo de dirección Democrático
Licencia Continental A
Determinación 8
Gestión de personas 8
Motivación 5
Disciplina 4
Satisfacción laboral
100%
Fatiga
0%
Cargo Ojeador
Salario 70.9K p/s
Contrato 14.03.2030

Rendimiento

Comportamiento Bueno
Efectividad del entrenamiento
30%
Desarrollo de jugadores
20%
Prevención de lesiones
25%
Implementación táctica
25%

Eventos recientes

Asistió a una reunión de captación 7d atrás
Asistió a una reunión de captación 14d atrás
Asistió a una reunión de captación 21d atrás
Asistió a una reunión de captación 28d atrás
Asistió a una reunión de captación 35d atrás
Asistió a una reunión de captación 42d atrás
Asistió a una reunión de captación 49d atrás
Asistió a una reunión de captación 56d atrás

Actualmente siguiendo

71
Jugador Club Estado Habilidad Confianza Observado Última observación Último voto
Daniil Kulikov Belshina Activo 80 / 88 48% 1 07.08.2028 -
Guljigit Alykulov Dinamo Minsk Activo 103 / 102 48% 1 26.06.2028 -
Rostislav Soldatenko Torpedo Moscow Activo 117 / 99 40% 1 23.01.2028 -
Yegor Lyubakov Arsenal Tula Activo 110 / 98 40% 1 23.01.2028 -
Yegor Koshkin Pobeda Activo 88 / 92 40% 1 22.01.2028 -
Maxim Vafiev Torpedo Vladimir Activo 85 / 81 40% 1 22.01.2028 -
Ilja Vakhania Krasnodar Activo 112 / 116 40% 5 19.01.2028 -
Sergey Varatynov Baltika Activo 123 / 127 40% 2 19.01.2028 -
Marcelo Alves SKA Khabarovsk Activo 107 / 110 40% 1 18.01.2028 -
Konstantin Kovalev Volga Activo 87 / 103 40% 1 18.01.2028 -
Evgeny Latyshonok Nizhniy Novgorod Activo 134 / 129 40% 2 17.01.2028 -
Ivan Lomaev Ufa Activo 116 / 122 40% 1 17.01.2028 -
Stefan Kovač Baltika Activo 122 / 113 40% 2 14.01.2028 -
Konstantin Kertanov Chelyabinsk Activo 87 / 101 40% 1 14.01.2028 -
Darko Todorović Fakel Activo 122 / 124 40% 4 11.01.2028 -
David Shavlokhov Chernomorets Activo 95 / 100 40% 1 11.01.2028 -
Matías Budiño Colón Activo 111 / 119 40% 1 10.01.2028 -
Ilja Tuseev Chelyabinsk Activo 106 / 97 40% 1 10.01.2028 -
Matvey Bardachev Zenit Activo 110 / 120 40% 1 09.01.2028 -
Maxime Sivis Orenburg Activo 118 / 121 40% 3 08.01.2028 -
Alexandr Ivankov Torpedo Moscow Activo 106 / 103 40% 1 08.01.2028 -
Fernando Costanza Krylya Sovetov Activo 118 / 120 40% 2 05.01.2028 -
Ignacio Saavedra Sochi Activo 129 / 114 40% 3 04.01.2028 -
Nikita Pavlov Chaika Activo 91 / 84 40% 1 04.01.2028 -
Stefan Lončar Akron Activo 105 / 109 40% 1 30.12.2027 -
Luciano Recalde Quilmes Activo 100 / 111 40% 1 30.12.2027 -
Leo Goglichidze Rodina Activo 110 / 108 40% 1 23.12.2027 -
Danil Krugovoy Orenburg Activo 122 / 135 40% 1 21.12.2027 -
Edgardo Fariña Nizhniy Novgorod Activo 115 / 121 40% 2 20.12.2027 -
Franco Hanashiro Colegiales Activo 107 / 103 40% 1 18.12.2027 -
Iker Pozo Rodina Activo 118 / 120 40% 2 11.12.2027 -
Ferland Mendy Real Madrid Activo 136 / 134 40% 1 13.06.2027 -
Egas Cacintura Akhmat Grozny Activo 130 / 118 40% 1 24.01.2027 -
Ivan Komarov Rostov Activo 101 / 114 40% 1 21.01.2027 -
Timofey Shipunov Ufa Activo 87 / 97 40% 1 21.01.2027 -
Krasian Kolev Chernomorets Activo 100 / 97 40% 1 20.01.2027 -
Lechi Sadulaev Akhmat Grozny Activo 118 / 117 40% 1 20.01.2027 -
Victor Melekhin Rostov Activo 113 / 115 40% 1 19.01.2027 -
Ilja Agapov Ufa Activo 110 / 115 40% 2 18.01.2027 -
Robert Mejía Orenburg Activo 117 / 108 40% 2 17.01.2027 -
Mitja Križan Rodina Activo 104 / 113 40% 1 17.01.2027 -
Temirkan Sundukov Dinamo Makhachkala Activo 102 / 109 40% 2 15.01.2027 -
Artur Murza Volga Activo 87 / 94 40% 1 13.01.2027 -
Ousmane Ndong Akhmat Grozny Activo 119 / 105 40% 2 12.01.2027 -
Alexandr Filin Baltika Activo 125 / 115 40% 2 10.01.2027 -
Arsen Adamov Akhmat Grozny Activo 132 / 124 40% 1 10.01.2027 -
Nathan Gassama Baltika Activo 114 / 109 40% 1 08.01.2027 -
Nuri Abdokov Fakel Activo 99 / 100 40% 1 07.01.2027 -
Andrey Nikitin Neftekhimik Activo 98 / 88 40% 1 07.01.2027 -
Miroslav Bogosavac Akhmat Grozny Activo 114 / 110 40% 1 04.01.2027 -
David Kokoev Yenisey Activo 92 / 100 40% 1 03.01.2027 -
Edu Expósito Espanyol Activo 120 / 127 40% 1 01.01.2027 -
Andrey Langovich Rostov Activo 115 / 116 40% 1 30.12.2026 -
Magomed Nasibov Pobeda Activo 73 / 93 40% 1 30.12.2026 -
Tenton Yenne Baltika Activo 108 / 104 40% 1 30.12.2026 -
Nikolay Boyarkin Salyut Activo 90 / 92 40% 1 29.12.2026 -
Denis Mikhailov Amkar Activo 73 / 83 40% 1 26.12.2026 -
Dardan Shabanhaxhaj Rubin Activo 126 / 111 40% 2 24.12.2026 -
Anderson Arroyo Rubin Activo 125 / 111 40% 2 24.12.2026 -
Danila Vedernikov Orenburg Activo 99 / 108 40% 1 22.12.2026 -
Veldin Hodža Rubin Activo 116 / 123 40% 1 22.12.2026 -
Bojan Roganović Torpedo Moscow Activo 93 / 101 40% 1 17.12.2026 -
Maxim Mukhin Rostov Activo 120 / 120 40% 1 14.12.2026 -
Daniil Agureev Amkar Activo 86 / 85 40% 1 14.12.2026 -
Alexey Mironov Rostov Activo 129 / 114 40% 1 10.12.2026 -
Marat Bokoev Akron Activo 121 / 121 40% 1 10.12.2026 -
Thomas Galdames Krylya Sovetov Activo 107 / 116 40% 1 07.12.2026 -
Sidney Lima Santa Clara Activo 143 / 135 40% 1 02.11.2026 -
Dan Casey Wycombe Wanderers Activo 128 / 103 40% 1 09.10.2026 -
Facundo Miño Deportivo Riestra Activo 107 / 117 40% 1 05.10.2026 -
Marcelino Moreno Lanús Activo 137 / 128 40% 1 02.08.2026 -